Time;durP1;ratioP1;P1;durP2;ratioP2;P2;SDS_P1;SDS_P2;PMS_P1;PMS_P2;Temp;Humidity;BMP_temperature;BMP_pressure;BME280_temperature;BME280_humidity;BME280_pressure;Samples;Min_cycle;Max_cycle;Signal;HPM_P1;HPM_P2
2023/06/09 00:00:17;;;;;;;16.70;9.70;;;;;;;16.38;67.75;100648.42;104425;1272;100074;-75
2023/06/09 00:03:24;;;;;;;11.60;9.80;;;;;;;16.36;67.72;100644.13;104447;1273;105936;-78
2023/06/09 00:06:10;;;;;;;12.60;9.60;;;;;;;16.36;67.70;100641.94;104506;1270;100365;-78
2023/06/09 00:08:57;;;;;;;11.50;9.80;;;;;;;16.34;67.71;100644.16;104522;1274;97999;-76
2023/06/09 00:11:42;;;;;;;11.50;9.60;;;;;;;16.31;67.58;100638.46;104708;1267;98554;-79
2023/06/09 00:14:28;;;;;;;14.70;9.20;;;;;;;16.27;67.69;100640.34;104588;1272;99660;-79
2023/06/09 00:17:14;;;;;;;11.70;9.80;;;;;;;16.21;67.61;100639.33;104743;1267;111366;-78
2023/06/09 00:20:03;;;;;;;15.50;10.40;;;;;;;16.17;68.29;100642.69;104662;1267;99092;-79
2023/06/09 00:22:49;;;;;;;11.70;10.50;;;;;;;16.10;68.55;100642.95;104494;1273;97981;-78
2023/06/09 00:25:35;;;;;;;11.70;10.50;;;;;;;16.04;68.87;100643.52;104375;1267;98007;-76
2023/06/09 00:28:20;;;;;;;16.40;10.50;;;;;;;15.97;69.13;100645.90;104441;1267;97994;-77
2023/06/09 00:31:06;;;;;;;11.50;10.40;;;;;;;15.92;69.16;100647.32;104446;1271;101482;-78
2023/06/09 00:33:52;;;;;;;11.80;10.50;;;;;;;15.84;69.47;100647.51;104398;1267;100073;-78
2023/06/09 00:36:37;;;;;;;10.60;9.50;;;;;;;15.75;69.25;100643.63;104424;1267;98518;-77
2023/06/09 00:39:23;;;;;;;12.00;9.20;;;;;;;15.67;69.34;100645.17;104441;1267;99227;-78
2023/06/09 00:42:08;;;;;;;10.10;8.50;;;;;;;15.57;69.41;100649.94;104441;1271;99085;-79
2023/06/09 00:44:54;;;;;;;11.40;9.10;;;;;;;15.50;69.44;100648.58;104446;1273;101432;-77
2023/06/09 00:47:40;;;;;;;10.50;9.30;;;;;;;15.42;69.25;100644.21;104428;1267;100256;-78
2023/06/09 00:50:26;;;;;;;13.80;9.80;;;;;;;15.37;69.60;100646.84;104466;1271;97972;-77
2023/06/09 00:53:12;;;;;;;11.80;9.80;;;;;;;15.31;69.34;100651.48;104350;1269;98595;-77
2023/06/09 00:55:58;;;;;;;10.90;9.90;;;;;;;15.26;69.65;100651.45;104436;1267;98502;-75
2023/06/09 00:58:44;;;;;;;11.40;10.30;;;;;;;15.21;70.02;100650.74;104422;1267;101474;-78
2023/06/09 01:01:32;;;;;;;13.70;10.60;;;;;;;15.17;70.20;100651.13;104407;1267;100311;-76
2023/06/09 01:04:18;;;;;;;11.80;10.60;;;;;;;15.15;70.34;100651.36;104467;1272;98995;-78
2023/06/09 01:07:16;;;;;;;12.20;11.00;;;;;;;15.10;70.42;100646.77;104470;1271;97990;-79
2023/06/09 01:10:06;;;;;;;11.70;10.50;;;;;;;15.07;70.55;100651.02;104501;1269;99394;-78
2023/06/09 01:13:06;;;;;;;11.40;10.40;;;;;;;15.03;70.49;100646.06;104421;1274;101923;-76
2023/06/09 01:15:57;;;;;;;12.50;10.00;;;;;;;14.98;70.43;100643.17;104432;1271;100389;-78
2023/06/09 01:18:42;;;;;;;;;;;;;;;14.96;70.34;100638.41;105651;1271;99567;-76
2023/06/09 01:21:35;;;;;;;11.90;10.80;;;;;;;14.90;70.81;100636.74;104417;1267;97930;-78
2023/06/09 01:24:38;;;;;;;11.80;10.70;;;;;;;14.85;70.78;100633.92;104311;1273;97984;-76
2023/06/09 01:27:25;;;;;;;11.30;10.30;;;;;;;14.82;70.78;100633.41;104439;1270;101374;-77
2023/06/09 01:30:15;;;;;;;12.90;11.30;;;;;;;14.77;71.03;100630.94;104408;1267;99262;-77
2023/06/09 01:33:05;;;;;;;13.20;11.50;;;;;;;14.74;71.25;100630.91;104549;1271;98774;-80
2023/06/09 01:35:53;;;;;;;13.10;11.00;;;;;;;14.69;71.28;100634.25;104777;1267;98664;-80
2023/06/09 01:38:40;;;;;;;12.60;11.30;;;;;;;14.66;71.24;100635.48;104654;1273;98508;-76
2023/06/09 01:41:25;;;;;;;12.30;11.20;;;;;;;14.64;71.15;100633.08;104553;1276;101375;-78
2023/06/09 01:44:11;;;;;;;13.00;11.50;;;;;;;14.63;71.49;100632.89;104409;1267;99285;-76
2023/06/09 01:46:57;;;;;;;13.20;11.50;;;;;;;14.63;71.68;100633.10;104423;1271;98003;-77
2023/06/09 01:50:02;;;;;;;11.20;10.10;;;;;;;14.57;71.45;100635.11;104376;1273;97795;-80
2023/06/09 01:53:00;;;;;;;12.50;11.30;;;;;;;14.47;71.38;100637.65;104429;1268;99183;-79
2023/06/09 01:55:54;;;;;;;13.00;11.70;;;;;;;14.41;71.94;100642.31;104423;1267;101423;-79
2023/06/09 01:58:44;;;;;;;11.90;10.80;;;;;;;14.34;71.58;100636.41;104441;1271;100181;-79
2023/06/09 02:01:33;;;;;;;14.10;10.70;;;;;;;14.28;71.08;100637.10;104446;1270;97998;-79
2023/06/09 02:04:23;;;;;;;15.60;11.70;;;;;;;14.22;71.46;100631.84;104444;1268;99146;-78
2023/06/09 02:07:09;;;;;;;12.90;11.70;;;;;;;14.18;71.91;100633.95;104794;1270;98603;-80
2023/06/09 02:09:55;;;;;;;13.00;11.80;;;;;;;14.17;72.03;100636.30;104461;1270;101397;-78
2023/06/09 02:12:40;;;;;;;13.40;12.20;;;;;;;14.16;71.96;100639.97;104489;1270;99164;-77
2023/06/09 02:15:26;;;;;;;13.10;11.80;;;;;;;14.17;72.20;100642.04;104470;1271;97981;-79
2023/06/09 02:18:15;;;;;;;16.00;13.70;;;;;;;14.16;72.27;100639.80;104500;1267;99260;-77
2023/06/09 02:21:00;;;;;;;14.90;13.40;;;;;;;14.15;73.39;100643.19;104665;1269;98063;-77
2023/06/09 02:23:45;;;;;;;15.50;13.90;;;;;;;14.12;73.61;100645.73;104525;1267;101960;-78
2023/06/09 02:26:32;;;;;;;14.00;12.70;;;;;;;14.10;73.64;100645.73;104465;1268;100372;-77
2023/06/09 02:29:19;;;;;;;14.40;12.30;;;;;;;14.06;73.58;100645.77;104993;1271;98009;-76
2023/06/09 02:32:05;;;;;;;14.30;12.80;;;;;;;14.03;73.54;100648.59;104497;1271;99279;-76
2023/06/09 02:34:51;;;;;;;13.10;11.70;;;;;;;14.01;73.56;100652.48;104371;1268;99743;-77
2023/06/09 02:37:37;;;;;;;13.00;11.70;;;;;;;13.98;73.45;100652.06;104633;1270;101406;-77
2023/06/09 02:40:26;;;;;;;14.00;12.60;;;;;;;13.96;73.48;100652.85;104499;1267;100077;-77
2023/06/09 02:43:12;;;;;;;16.10;13.80;;;;;;;13.94;73.85;100649.30;104384;1268;97907;-78
2023/06/09 02:45:57;;;;;;;15.30;13.90;;;;;;;13.93;74.32;100651.53;104341;1285;98070;-78
2023/06/09 02:48:43;;;;;;;14.20;12.90;;;;;;;13.93;74.52;100649.97;104558;1267;99291;-79
2023/06/09 02:51:29;;;;;;;14.60;13.30;;;;;;;13.92;74.82;100649.58;104397;1268;102207;-78
2023/06/09 02:54:14;;;;;;;15.00;13.30;;;;;;;13.91;74.85;100650.21;104381;1273;100359;-77
2023/06/09 02:57:00;;;;;;;14.60;13.20;;;;;;;13.91;74.53;100651.73;104479;1267;97929;-78
2023/06/09 02:59:47;;;;;;;15.20;13.70;;;;;;;13.91;75.17;100651.00;104432;1273;101569;-77
2023/06/09 03:02:34;;;;;;;16.70;13.60;;;;;;;13.95;76.47;100650.08;104415;1273;98424;-78
2023/06/09 03:05:20;;;;;;;13.60;12.20;;;;;;;14.00;76.90;100649.84;104607;1271;101436;-77
2023/06/09 03:08:09;;;;;;;14.90;12.90;;;;;;;14.05;77.02;100651.08;104430;1270;99966;-76
2023/06/09 03:10:56;;;;;;;15.00;13.20;;;;;;;14.09;77.00;100654.46;104382;1271;98141;-78
2023/06/09 03:13:41;;;;;;;15.00;13.40;;;;;;;14.13;77.00;100650.12;104402;1267;98049;-79
2023/06/09 03:16:27;;;;;;;14.30;12.80;;;;;;;14.18;77.07;100645.81;104393;1267;98509;-78
2023/06/09 03:19:14;;;;;;;16.30;13.40;;;;;;;14.23;77.74;100644.98;104395;1271;101713;-76
2023/06/09 03:22:03;;;;;;;13.90;12.60;;;;;;;14.25;78.08;100646.17;104496;1267;99093;-78
2023/06/09 03:24:49;;;;;;;14.70;12.80;;;;;;;14.26;78.38;100651.52;104389;1267;97984;-77
2023/06/09 03:27:37;;;;;;;12.80;11.60;;;;;;;14.32;78.76;100660.65;104386;1271;97986;-77
2023/06/09 03:30:23;;;;;;;14.40;12.90;;;;;;;14.41;79.13;100661.17;104452;1267;98429;-78
2023/06/09 03:33:09;;;;;;;14.80;12.80;;;;;;;14.51;79.52;100661.08;104389;1271;101371;-77
2023/06/09 03:35:55;;;;;;;13.70;12.30;;;;;;;14.60;79.59;100663.89;104437;1271;100578;-78
2023/06/09 03:38:41;;;;;;;13.70;12.40;;;;;;;14.70;80.01;100662.29;104549;1271;97747;-77
2023/06/09 03:41:26;;;;;;;15.40;12.40;;;;;;;14.81;79.92;100668.39;104449;1267;97981;-78
2023/06/09 03:44:13;;;;;;;17.30;13.50;;;;;;;14.90;79.77;100672.34;104448;1267;97971;-77
2023/06/09 03:46:58;;;;;;;16.00;13.10;;;;;;;14.99;80.17;100666.20;104463;1269;101340;-78
2023/06/09 03:49:44;;;;;;;14.40;12.70;;;;;;;15.04;81.16;100665.60;104443;1272;99651;-77
2023/06/09 03:52:30;;;;;;;13.10;11.80;;;;;;;15.07;81.18;100664.51;104431;1267;99164;-76
2023/06/09 03:55:22;;;;;;;14.30;12.80;;;;;;;15.10;81.20;100671.42;104533;1273;98604;-77
2023/06/09 03:58:10;;;;;;;15.10;13.40;;;;;;;15.17;81.31;100680.53;104502;1267;98506;-78
2023/06/09 04:00:56;;;;;;;17.90;14.00;;;;;;;15.26;81.43;100679.83;104636;1271;102641;-78
2023/06/09 04:03:42;;;;;;;14.80;13.30;;;;;;;15.36;82.02;100682.14;104525;1271;99174;-78
2023/06/09 04:06:28;;;;;;;16.10;14.10;;;;;;;15.44;82.69;100685.29;104567;1267;99242;-77
2023/06/09 04:09:15;;;;;;;15.40;13.80;;;;;;;15.52;82.96;100682.91;104622;1271;98723;-79
2023/06/09 04:12:01;;;;;;;15.50;13.90;;;;;;;15.62;82.78;100683.84;104482;1267;97994;-79
2023/06/09 04:14:46;;;;;;;15.60;13.90;;;;;;;15.74;82.54;100680.11;104550;1274;102133;-78
2023/06/09 04:17:32;;;;;;;19.20;14.20;;;;;;;15.85;82.98;100675.58;104558;1267;99101;-78
2023/06/09 04:20:22;;;;;;;15.10;13.50;;;;;;;15.95;83.36;100678.55;104536;1268;98413;-78
2023/06/09 04:23:09;;;;;;;15.60;13.70;;;;;;;16.02;83.45;100675.98;104816;1273;98007;-78
2023/06/09 04:25:55;;;;;;;15.80;13.60;;;;;;;16.09;83.63;100676.55;104503;1273;98849;-76
2023/06/09 04:28:41;;;;;;;14.40;12.90;;;;;;;16.16;83.77;100676.30;104531;1267;101358;-78
2023/06/09 04:31:33;;;;;;;16.20;13.80;;;;;;;16.24;83.82;100675.51;104892;1267;99216;-79
2023/06/09 04:34:19;;;;;;;18.40;12.70;;;;;;;16.33;83.88;100679.04;104347;1271;98938;-76
2023/06/09 04:37:08;;;;;;;15.20;12.80;;;;;;;16.41;84.23;100677.52;104419;1270;97992;-77
2023/06/09 04:39:55;;;;;;;13.70;12.30;;;;;;;16.49;84.31;100672.55;104535;1267;99766;-76
2023/06/09 04:42:41;;;;;;;15.00;13.40;;;;;;;16.58;84.54;100670.52;104418;1267;102627;-79
2023/06/09 04:45:33;;;;;;;13.40;11.90;;;;;;;16.68;84.51;100668.88;104448;1270;101599;-78
2023/06/09 04:48:22;;;;;;;14.20;12.60;;;;;;;16.77;84.26;100670.02;104616;1271;99013;-77
2023/06/09 04:51:08;;;;;;;14.30;12.50;;;;;;;16.87;84.10;100672.95;104621;1274;98483;-79
2023/06/09 04:53:59;;;;;;;16.40;12.60;;;;;;;16.99;84.44;100674.88;104687;1272;98457;-78
2023/06/09 04:56:52;;;;;;;18.30;13.00;;;;;;;17.12;83.91;100671.02;104680;1271;101377;-80
2023/06/09 04:59:39;;;;;;;16.80;15.00;;;;;;;17.25;83.67;100672.76;104614;1268;99095;-76
2023/06/09 05:02:25;;;;;;;15.30;12.80;;;;;;;17.39;82.88;100677.20;104661;1271;97971;-79
2023/06/09 05:05:12;;;;;;;13.50;12.20;;;;;;;17.53;82.80;100681.61;104609;1274;98000;-78
2023/06/09 05:07:58;;;;;;;15.20;12.40;;;;;;;17.66;82.49;100682.30;104503;1271;98669;-78
2023/06/09 05:10:43;;;;;;;14.40;13.00;;;;;;;17.80;82.45;100681.59;104458;1267;102596;-78
2023/06/09 05:13:29;;;;;;;15.50;12.70;;;;;;;17.93;82.34;100684.36;104471;1267;99158;-79
2023/06/09 05:16:18;;;;;;;13.80;12.50;;;;;;;18.05;82.21;100680.20;104694;1268;97988;-78
2023/06/09 05:19:03;;;;;;;18.20;12.30;;;;;;;18.16;81.94;100679.45;104645;1268;97983;-79
2023/06/09 05:21:49;;;;;;;15.40;12.00;;;;;;;18.26;81.89;100679.80;104690;1267;98596;-79
2023/06/09 05:24:35;;;;;;;13.00;11.30;;;;;;;18.35;81.58;100680.96;104689;1271;102840;-79
2023/06/09 05:27:21;;;;;;;13.30;10.70;;;;;;;18.45;81.51;100684.15;104791;1273;100056;-79
2023/06/09 05:30:07;;;;;;;14.50;11.90;;;;;;;18.57;81.28;100675.90;104693;1283;99041;-79
2023/06/09 05:32:53;;;;;;;11.90;10.80;;;;;;;18.68;81.29;100675.18;104557;1276;98084;-79
2023/06/09 05:35:38;;;;;;;12.60;11.40;;;;;;;18.79;81.05;100673.36;104724;1268;98505;-81
2023/06/09 05:38:27;;;;;;;13.50;10.80;;;;;;;18.91;81.48;100675.53;104671;1271;101347;-80
2023/06/09 05:41:14;;;;;;;12.00;10.80;;;;;;;19.04;81.19;100676.14;104689;1271;99114;-79
2023/06/09 05:43:59;;;;;;;12.00;10.20;;;;;;;19.17;80.91;100675.47;104747;1267;98992;-80
2023/06/09 05:46:45;;;;;;;12.30;9.40;;;;;;;19.28;80.53;100672.86;104730;1270;97927;-81
2023/06/09 05:49:31;;;;;;;11.30;9.90;;;;;;;19.41;80.46;100669.77;104710;1267;98592;-79
2023/06/09 05:52:17;;;;;;;12.50;9.80;;;;;;;19.54;80.34;100668.33;104748;1271;101362;-80
2023/06/09 05:55:03;;;;;;;11.40;10.20;;;;;;;19.66;79.33;100667.63;104719;1269;99128;-80
2023/06/09 05:57:49;;;;;;;16.00;10.30;;;;;;;19.77;79.11;100667.79;104750;1271;98014;-79
2023/06/09 06:00:35;;;;;;;12.90;10.10;;;;;;;19.90;79.05;100669.15;104731;1271;97908;-79
2023/06/09 06:03:21;;;;;;;8.30;7.40;;;;;;;20.03;78.77;100667.16;104765;1268;99582;-79
2023/06/09 06:06:09;;;;;;;11.20;7.20;;;;;;;20.17;78.09;100666.90;104781;1267;101434;-79
2023/06/09 06:08:54;;;;;;;9.50;7.10;;;;;;;20.31;77.30;100662.84;105104;1268;99107;-79
2023/06/09 06:11:40;;;;;;;10.30;8.10;;;;;;;20.46;76.32;100663.23;104824;1270;99077;-78
2023/06/09 06:14:25;;;;;;;8.50;6.80;;;;;;;20.59;76.09;100663.30;104615;1271;98073;-80
2023/06/09 06:17:11;;;;;;;12.20;7.30;;;;;;;20.72;76.13;100660.46;104762;1269;98003;-79
2023/06/09 06:19:57;;;;;;;7.80;7.10;;;;;;;20.87;75.25;100662.81;104582;1271;102636;-79
2023/06/09 06:22:43;;;;;;;8.80;6.70;;;;;;;20.99;74.46;100655.47;104699;1271;100352;-79
2023/06/09 06:25:28;;;;;;;8.20;6.90;;;;;;;21.13;74.47;100653.97;104601;1274;98539;-79
2023/06/09 06:28:14;;;;;;;9.30;7.50;;;;;;;21.27;74.31;100653.06;104493;1271;98059;-79
2023/06/09 06:31:00;;;;;;;8.10;6.00;;;;;;;21.42;73.52;100658.02;104484;1271;99785;-78
2023/06/09 06:33:46;;;;;;;6.90;5.90;;;;;;;21.54;72.29;100656.40;104471;1271;101349;-78
2023/06/09 06:36:31;;;;;;;9.40;5.90;;;;;;;21.63;71.54;100659.48;104624;1272;99116;-78
2023/06/09 06:39:17;;;;;;;8.20;5.90;;;;;;;21.70;70.62;100661.14;104626;1270;98528;-78
2023/06/09 06:42:03;;;;;;;7.90;6.00;;;;;;;21.77;70.47;100664.53;104703;1271;98855;-79
2023/06/09 06:44:52;;;;;;;9.50;5.80;;;;;;;21.88;70.48;100658.06;104696;1268;97825;-79
2023/06/09 06:47:37;;;;;;;6.60;5.30;;;;;;;21.97;69.20;100659.35;104877;1271;101364;-80
2023/06/09 06:50:23;;;;;;;6.00;5.40;;;;;;;22.04;68.35;100662.23;104783;1268;99088;-80
2023/06/09 06:53:08;;;;;;;8.10;5.70;;;;;;;22.10;68.70;100658.86;104656;1268;98362;-80
2023/06/09 06:55:54;;;;;;;7.80;5.30;;;;;;;22.19;68.38;100662.42;104770;1273;98864;-80
2023/06/09 06:58:40;;;;;;;9.00;5.60;;;;;;;22.24;67.29;100662.19;104606;1267;99645;-79
2023/06/09 07:01:25;;;;;;;5.80;5.20;;;;;;;22.26;66.70;100657.35;104426;1267;101354;-78
2023/06/09 07:04:11;;;;;;;7.80;5.30;;;;;;;22.29;66.58;100660.15;104450;1271;99780;-79
2023/06/09 07:06:56;;;;;;;7.70;5.00;;;;;;;22.33;66.61;100660.84;104414;1271;97946;-79
2023/06/09 07:09:42;;;;;;;8.30;5.00;;;;;;;22.39;66.24;100659.41;105446;1267;98053;-85
2023/06/09 07:12:27;;;;;;;6.30;5.60;;;;;;;22.47;65.78;100666.27;105636;1271;98908;-79
2023/06/09 07:15:13;;;;;;;4.90;4.40;;;;;;;22.57;65.46;100665.92;105449;1271;101353;-82
2023/06/09 07:17:58;;;;;;;7.20;4.50;;;;;;;22.69;65.76;100666.56;105530;1273;99120;-78
2023/06/09 07:20:44;;;;;;;8.40;5.70;;;;;;;22.81;65.30;100664.89;105319;1268;98554;-79
2023/06/09 07:23:30;;;;;;;6.50;4.70;;;;;;;22.93;65.72;100661.88;104362;1281;99189;-78
2023/06/09 07:26:16;;;;;;;8.20;4.70;;;;;;;23.04;64.85;100663.39;104456;1268;98411;-77
2023/06/09 07:29:02;;;;;;;6.30;4.40;;;;;;;23.12;63.58;100657.70;104391;1268;102637;-79
2023/06/09 07:31:47;;;;;;;6.20;4.10;;;;;;;23.16;63.49;100655.36;104371;1269;99105;-78
2023/06/09 07:34:33;;;;;;;5.90;3.80;;;;;;;23.23;62.44;100657.35;104372;1268;98980;-77
2023/06/09 07:37:19;;;;;;;4.30;3.30;;;;;;;23.16;60.63;100658.20;104398;1270;97997;-79
2023/06/09 07:40:11;;;;;;;5.70;4.30;;;;;;;23.14;60.60;100658.91;104306;1271;98550;-78
2023/06/09 07:42:57;;;;;;;7.90;4.10;;;;;;;23.19;61.17;100656.79;104419;1268;101404;-77
2023/06/09 07:45:43;;;;;;;7.70;4.30;;;;;;;23.28;60.86;100652.71;104468;1268;99956;-78
2023/06/09 07:48:28;;;;;;;5.40;4.50;;;;;;;23.35;60.03;100655.65;104440;1271;98973;-77
2023/06/09 07:51:14;;;;;;;7.70;3.90;;;;;;;23.39;59.81;100653.28;104392;1268;98883;-78
2023/06/09 07:53:59;;;;;;;7.80;4.30;;;;;;;23.47;59.89;100651.88;104371;1271;100632;-78
2023/06/09 07:56:49;;;;;;;4.80;4.30;;;;;;;23.56;59.51;100646.65;104395;1268;101472;-78
2023/06/09 07:59:34;;;;;;;5.10;4.10;;;;;;;23.64;58.98;100643.04;104430;1268;99154;-78
2023/06/09 08:02:20;;;;;;;6.20;4.00;;;;;;;23.71;59.51;100642.55;104375;1271;98045;-78
2023/06/09 08:05:06;;;;;;;6.60;4.20;;;;;;;23.78;58.80;100645.80;104395;1271;99144;-77
2023/06/09 08:07:52;;;;;;;4.90;3.80;;;;;;;23.84;58.29;100644.48;104342;1268;98516;-78
2023/06/09 08:10:38;;;;;;;4.60;3.30;;;;;;;23.92;57.78;100640.55;104402;1268;103559;-79
2023/06/09 08:13:25;;;;;;;5.60;3.80;;;;;;;24.00;56.91;100638.70;104457;1273;99183;-77
2023/06/09 08:16:10;;;;;;;4.50;3.60;;;;;;;24.08;56.69;100643.09;104415;1268;97986;-77
2023/06/09 08:18:55;;;;;;;5.10;3.30;;;;;;;24.18;56.63;100642.27;104443;1269;99276;-78
2023/06/09 08:21:43;;;;;;;7.40;3.90;;;;;;;24.29;56.60;100642.27;104598;1268;98504;-79
2023/06/09 08:24:29;;;;;;;5.50;3.90;;;;;;;24.37;55.77;100641.91;104673;1268;103036;-78
2023/06/09 08:27:14;;;;;;;7.20;3.50;;;;;;;24.41;54.77;100641.48;104608;1271;99308;-77
2023/06/09 08:30:00;;;;;;;6.90;3.20;;;;;;;24.46;54.42;100644.97;104594;1271;98019;-79
2023/06/09 08:32:46;;;;;;;3.80;3.30;;;;;;;24.53;54.61;100643.86;104516;1267;97980;-79
2023/06/09 08:35:32;;;;;;;4.30;3.30;;;;;;;24.61;53.80;100639.73;104564;1268;99129;-78
2023/06/09 08:38:18;;;;;;;3.00;2.60;;;;;;;24.68;53.42;100634.95;104634;1267;101383;-78
2023/06/09 08:41:07;;;;;;;5.20;3.50;;;;;;;24.75;52.66;100636.44;104588;1269;99965;-79
2023/06/09 08:43:53;;;;;;;5.30;3.60;;;;;;;24.79;52.07;100637.58;104501;1268;98714;-77
2023/06/09 08:46:40;;;;;;;4.00;3.20;;;;;;;24.83;52.52;100635.42;104493;1274;98596;-79
2023/06/09 08:49:27;;;;;;;4.00;3.10;;;;;;;24.91;52.57;100636.70;104561;1269;97861;-78
2023/06/09 08:52:12;;;;;;;5.40;3.10;;;;;;;24.98;52.31;100636.12;104715;1271;101417;-80
2023/06/09 08:54:59;;;;;;;4.00;3.30;;;;;;;25.05;51.40;100636.64;104827;1271;99108;-79
2023/06/09 08:57:47;;;;;;;4.70;3.30;;;;;;;25.11;51.21;100638.92;104648;1271;99170;-80
2023/06/09 09:00:33;;;;;;;4.80;3.40;;;;;;;25.17;50.65;100640.42;104599;1269;98003;-78
2023/06/09 09:03:20;;;;;;;3.60;3.30;;;;;;;25.23;50.15;100633.98;104612;1268;98529;-79
2023/06/09 09:06:06;;;;;;;7.40;3.20;;;;;;;25.31;50.67;100628.19;107720;1268;102433;-79
2023/06/09 09:08:52;;;;;;;4.20;3.40;;;;;;;25.43;50.96;100630.45;107561;1268;99092;-78
2023/06/09 09:11:37;;;;;;;3.80;2.90;;;;;;;25.53;49.82;100630.77;104629;1267;99129;-79
2023/06/09 09:14:23;;;;;;;7.00;3.20;;;;;;;25.61;49.60;100628.23;104669;1271;98417;-78
2023/06/09 09:17:13;;;;;;;7.30;3.50;;;;;;;25.71;49.18;100628.44;104641;1274;99436;-79
2023/06/09 09:20:06;;;;;;;8.20;3.40;;;;;;;25.76;48.40;100624.46;104498;1271;103131;-79
2023/06/09 09:22:52;;;;;;;4.50;3.10;;;;;;;25.76;48.65;100625.61;104504;1269;100340;-78
2023/06/09 09:25:38;;;;;;;3.60;3.30;;;;;;;25.74;48.47;100628.47;104510;1271;98947;-79
2023/06/09 09:28:23;;;;;;;3.50;3.20;;;;;;;25.73;48.19;100623.48;105341;1268;98056;-86
2023/06/09 09:31:09;;;;;;;3.10;2.80;;;;;;;25.79;47.80;100616.80;105443;1268;98264;-80
2023/06/09 09:33:55;;;;;;;7.80;3.40;;;;;;;25.84;47.70;100613.79;105332;1266;101348;-80
2023/06/09 09:36:41;;;;;;;4.10;3.50;;;;;;;25.93;47.81;100616.95;105395;1273;99113;-79
2023/06/09 09:39:27;;;;;;;5.10;3.30;;;;;;;26.05;46.72;100613.29;104816;1267;99322;-80
2023/06/09 09:42:12;;;;;;;5.10;3.30;;;;;;;26.17;46.43;100613.70;104854;1271;97984;-80
2023/06/09 09:45:02;;;;;;;7.00;3.50;;;;;;;26.30;46.09;100609.73;104910;1269;99676;-80
2023/06/09 09:47:48;;;;;;;8.20;3.50;;;;;;;26.40;46.01;100606.20;105097;1271;102648;-78
2023/06/09 09:50:36;;;;;;;4.40;3.30;;;;;;;26.49;46.10;100605.56;104971;1269;100406;-80
2023/06/09 09:53:25;;;;;;;6.20;3.20;;;;;;;26.52;45.49;100607.79;104817;1274;98947;-80
2023/06/09 09:56:14;;;;;;;4.40;2.90;;;;;;;26.45;45.26;100602.70;104946;1271;98007;-80
2023/06/09 09:59:02;;;;;;;4.50;2.90;;;;;;;26.35;44.15;100604.29;104948;1271;97980;-79
2023/06/09 10:01:50;;;;;;;4.30;3.20;;;;;;;26.17;43.88;100603.42;104879;1271;101401;-80
2023/06/09 10:04:36;;;;;;;4.10;3.30;;;;;;;26.13;44.14;100600.67;104877;1282;99729;-80
2023/06/09 10:07:26;;;;;;;5.50;3.20;;;;;;;26.20;43.85;100596.13;104851;1267;97909;-81
2023/06/09 10:10:12;;;;;;;2.80;2.50;;;;;;;26.36;44.15;100596.58;104930;1273;97891;-79
2023/06/09 10:13:00;;;;;;;4.70;2.90;;;;;;;26.51;43.64;100593.23;104846;1268;98483;-79
2023/06/09 10:15:45;;;;;;;9.00;3.20;;;;;;;26.58;43.56;100586.38;104909;1271;101340;-81
2023/06/09 10:18:32;;;;;;;13.90;3.40;;;;;;;26.67;43.55;100589.31;104944;1267;99197;-81
2023/06/09 10:21:20;;;;;;;8.40;3.20;;;;;;;26.78;43.40;100588.77;105245;1271;99522;-79
2023/06/09 10:24:06;;;;;;;6.80;3.20;;;;;;;26.88;43.19;100584.41;104918;1273;97969;-81
2023/06/09 10:26:53;;;;;;;5.40;3.00;;;;;;;26.99;44.07;100580.75;104929;1269;101058;-79
2023/06/09 10:29:40;;;;;;;5.80;3.40;;;;;;;27.11;42.93;100577.61;105005;1269;102573;-80
2023/06/09 10:32:29;;;;;;;7.90;3.50;;;;;;;27.08;41.94;100572.04;104960;1268;99078;-79
2023/06/09 10:35:17;;;;;;;4.30;3.20;;;;;;;27.09;42.09;100565.31;105219;1268;99521;-79
2023/06/09 10:38:45;;;;;;;9.10;3.20;;;;;;;27.17;41.66;100555.26;105426;1271;98170;-79
2023/06/09 10:41:40;;;;;;;3.50;3.00;;;;;;;27.07;40.67;100555.11;105816;1269;99202;-79
2023/06/09 10:44:42;;;;;;;6.90;2.80;;;;;;;27.00;41.13;100551.86;104894;1271;101366;-79
2023/06/09 10:47:45;;;;;;;3.10;2.50;;;;;;;27.10;40.76;100548.25;104852;1271;101175;-80
2023/06/09 10:50:31;;;;;;;4.60;3.30;;;;;;;27.19;40.57;100545.04;104906;1274;98996;-79
2023/06/09 10:53:16;;;;;;;6.00;2.70;;;;;;;27.24;40.43;100542.20;104613;1271;98010;-78
2023/06/09 10:56:33;;;;;;;8.00;3.00;;;;;;;27.27;40.36;100537.38;104510;1271;98495;-79
2023/06/09 10:59:28;;;;;;;5.60;2.90;;;;;;;27.33;40.83;100530.20;104713;1270;101385;-79
2023/06/09 11:02:15;;;;;;;7.80;2.80;;;;;;;27.41;40.80;100528.71;104433;1267;99102;-80
2023/06/09 11:05:04;;;;;;;4.10;3.10;;;;;;;27.54;40.48;100528.41;104728;1271;99260;-79
2023/06/09 11:07:52;;;;;;;5.10;3.00;;;;;;;27.57;40.47;100521.30;104685;1271;98565;-79
2023/06/09 11:10:37;;;;;;;6.10;2.90;;;;;;;27.60;40.21;100516.85;104778;1273;98481;-79
2023/06/09 11:13:38;;;;;;;3.30;2.90;;;;;;;27.66;40.48;100518.50;104881;1268;102589;-80
2023/06/09 11:16:24;;;;;;;4.00;3.30;;;;;;;27.69;39.98;100520.77;105734;1271;101973;-83
2023/06/09 11:19:19;;;;;;;2.80;2.60;;;;;;;27.60;39.75;100519.33;105709;1268;97812;-83
2023/06/09 11:22:08;;;;;;;8.60;2.80;;;;;;;27.51;39.43;100518.05;105508;1271;97947;-85
2023/06/09 11:24:55;;;;;;;4.80;3.10;;;;;;;27.36;39.11;100509.91;105398;1274;97982;-87
2023/06/09 11:27:42;;;;;;;4.50;3.00;;;;;;;27.26;39.17;100506.92;105267;1273;101386;-83
2023/06/09 11:30:32;;;;;;;8.90;3.10;;;;;;;27.35;39.76;100503.50;105650;1273;130856;-81
2023/06/09 11:33:51;;;;;;;5.10;2.90;;;;;;;27.51;40.07;100501.92;105295;1272;98811;-84
2023/06/09 11:36:37;;;;;;;5.20;3.20;;;;;;;27.56;39.47;100505.69;105428;1273;98760;-82
2023/06/09 11:39:24;;;;;;;3.00;2.60;;;;;;;27.62;39.01;100502.23;105474;1271;99282;-81
2023/06/09 11:42:09;;;;;;;6.00;2.80;;;;;;;27.68;38.61;100500.98;107747;1267;101247;-82
2023/06/09 11:44:56;;;;;;;6.10;2.80;;;;;;;27.71;38.01;100494.76;105758;1271;99072;-85
2023/06/09 11:47:42;;;;;;;4.80;3.30;;;;;;;27.57;37.67;100501.60;105534;1273;98080;-80
2023/06/09 11:50:45;;;;;;;4.90;3.20;;;;;;;27.38;38.10;100503.77;104798;1268;98013;-83
2023/06/09 11:53:33;;;;;;;5.40;2.90;;;;;;;27.22;38.15;100494.95;105757;1267;98456;-82
2023/06/09 11:56:18;;;;;;;8.50;3.00;;;;;;;27.23;38.62;100491.06;105280;1271;101347;-84
2023/06/09 11:59:04;;;;;;;5.30;3.00;;;;;;;27.34;38.83;100485.75;105408;1271;101130;-87
2023/06/09 12:01:50;;;;;;;4.90;2.90;;;;;;;27.42;38.10;100486.52;105092;1274;98081;-83
2023/06/09 12:04:41;;;;;;;3.60;2.40;;;;;;;27.34;37.28;100479.95;105733;1267;99244;-80
2023/06/09 12:07:27;;;;;;;7.60;3.10;;;;;;;27.26;37.71;100477.83;105729;1267;98054;-80
2023/06/09 12:10:17;;;;;;;5.80;3.00;;;;;;;27.33;38.37;100472.27;105831;1271;102602;-82
2023/06/09 12:13:02;;;;;;;4.20;2.80;;;;;;;27.43;37.49;100465.67;105933;1267;99771;-81
2023/06/09 12:15:51;;;;;;;10.50;3.40;;;;;;;27.55;37.55;100457.51;105611;1271;97966;-81
2023/06/09 12:18:37;;;;;;;3.60;2.80;;;;;;;27.69;37.52;100464.89;105336;1276;97972;-82
2023/06/09 12:21:22;;;;;;;8.00;3.00;;;;;;;27.73;36.93;100458.45;105445;1270;98967;-83
2023/06/09 12:24:11;;;;;;;14.70;3.60;;;;;;;27.82;37.11;100449.52;105570;1272;102630;-86
2023/06/09 12:27:10;;;;;;;6.70;3.00;;;;;;;27.95;37.47;100452.20;105336;1269;101540;-88
2023/06/09 12:29:56;;;;;;;5.90;3.10;;;;;;;28.07;36.79;100449.94;105581;1273;98490;-84
2023/06/09 12:32:42;;;;;;;5.20;2.50;;;;;;;28.18;36.19;100452.73;105508;1268;97987;-83
2023/06/09 12:35:36;;;;;;;4.20;2.70;;;;;;;28.30;36.11;100452.89;105382;1267;97979;-82
2023/06/09 12:38:27;;;;;;;6.40;2.90;;;;;;;28.47;36.12;100454.10;105480;1280;102615;-81